createdAt,value
2023-02-22T00:01:32.407Z,8.68
2023-02-22T00:03:58.804Z,6.85
2023-02-22T00:06:25.217Z,7.82
2023-02-22T00:08:51.708Z,7.85
2023-02-22T00:11:18.318Z,9.00
2023-02-22T00:13:44.892Z,8.93
2023-02-22T00:16:11.233Z,8.63
2023-02-22T00:18:37.555Z,8.85
2023-02-22T00:21:03.919Z,7.65
2023-02-22T00:23:30.232Z,7.60
2023-02-22T00:25:56.643Z,8.82
2023-02-22T00:28:23.077Z,7.55
2023-02-22T00:30:49.384Z,7.25
2023-02-22T00:33:15.753Z,7.63
2023-02-22T00:35:42.112Z,7.63
2023-02-22T00:38:08.483Z,8.25
2023-02-22T00:40:34.814Z,6.85
2023-02-22T00:43:01.319Z,8.30
2023-02-22T00:45:27.690Z,6.90
2023-02-22T00:47:55.421Z,8.50
2023-02-22T00:50:21.811Z,8.05
2023-02-22T00:52:48.140Z,8.10
2023-02-22T00:55:14.467Z,7.25
2023-02-22T00:57:40.878Z,6.75
2023-02-22T01:00:07.216Z,7.28
2023-02-22T01:02:33.569Z,7.10
2023-02-22T01:05:00.052Z,8.50
2023-02-22T01:07:26.481Z,9.55
2023-02-22T01:09:52.869Z,7.43
2023-02-22T01:12:19.397Z,7.32
2023-02-22T01:14:45.802Z,8.30
2023-02-22T01:17:12.268Z,7.40
2023-02-22T01:19:39.183Z,8.02
2023-02-22T01:22:05.508Z,8.98
2023-02-22T01:24:31.832Z,6.57
2023-02-22T01:26:58.520Z,7.68
2023-02-22T01:29:25.069Z,8.00
2023-02-22T01:31:51.447Z,7.93
2023-02-22T01:34:17.854Z,7.30
2023-02-22T01:36:44.181Z,7.00
2023-02-22T01:39:10.544Z,8.88
2023-02-22T01:41:37.000Z,6.32
2023-02-22T01:44:04.911Z,8.07
2023-02-22T01:46:31.223Z,8.27
2023-02-22T01:48:58.893Z,8.10
2023-02-22T01:51:25.214Z,7.50
2023-02-22T01:53:51.553Z,7.35
2023-02-22T01:56:17.932Z,6.95
2023-02-22T01:58:44.281Z,7.43
2023-02-22T02:01:10.629Z,7.60
2023-02-22T02:03:37.082Z,6.95
2023-02-22T02:06:04.136Z,8.57
2023-02-22T02:08:32.249Z,8.30
2023-02-22T02:10:58.609Z,8.77
2023-02-22T02:13:24.942Z,8.30
2023-02-22T02:15:51.373Z,8.77
2023-02-22T02:18:17.772Z,7.45
2023-02-22T02:20:44.548Z,7.32
2023-02-22T02:23:10.933Z,7.18
2023-02-22T02:25:37.287Z,8.27
2023-02-22T02:28:03.626Z,8.27
2023-02-22T02:30:30.001Z,8.82
2023-02-22T02:32:56.421Z,7.13
2023-02-22T02:35:22.888Z,8.55
2023-02-22T02:37:49.217Z,7.10
2023-02-22T02:40:15.613Z,7.80
2023-02-22T02:42:41.941Z,6.80
2023-02-22T02:45:08.267Z,7.35
2023-02-22T02:47:34.653Z,7.65
2023-02-22T02:50:00.970Z,6.72
2023-02-22T02:52:27.318Z,7.75
2023-02-22T02:54:53.697Z,8.20
2023-02-22T02:57:20.047Z,8.38
2023-02-22T02:59:46.492Z,6.85
2023-02-22T03:02:12.903Z,6.20
2023-02-22T03:04:39.233Z,7.05
2023-02-22T03:07:05.567Z,6.57
2023-02-22T03:09:33.734Z,6.25
2023-02-22T03:12:02.195Z,6.68
2023-02-22T03:14:28.845Z,6.07
2023-02-22T03:16:55.270Z,7.15
2023-02-22T03:19:21.595Z,6.55
2023-02-22T03:21:47.985Z,6.93
2023-02-22T03:24:14.375Z,6.25
2023-02-22T03:26:40.794Z,8.95
2023-02-22T03:29:07.985Z,5.45
2023-02-22T03:31:34.888Z,7.50
2023-02-22T03:34:01.940Z,6.10
2023-02-22T03:36:30.242Z,5.85
2023-02-22T03:38:56.670Z,6.35
2023-02-22T03:41:22.998Z,6.38
2023-02-22T03:43:49.337Z,5.95
2023-02-22T03:46:16.087Z,6.28
2023-02-22T03:48:43.648Z,7.35
2023-02-22T03:51:10.020Z,5.28
2023-02-22T03:53:36.537Z,6.25
2023-02-22T03:56:04.418Z,6.15
2023-02-22T03:58:30.745Z,5.47
2023-02-22T04:00:57.206Z,7.22
2023-02-22T04:03:23.607Z,5.82
2023-02-22T04:05:50.832Z,5.53
2023-02-22T04:08:18.922Z,5.88
2023-02-22T04:10:46.391Z,6.55
2023-02-22T04:13:14.029Z,5.80
2023-02-22T04:15:44.344Z,7.20
2023-02-22T04:18:11.890Z,5.13
2023-02-22T04:20:38.232Z,5.80
2023-02-22T04:23:09.696Z,6.03
2023-02-22T04:25:38.540Z,5.13
2023-02-22T04:28:10.497Z,6.00
2023-02-22T04:30:42.542Z,5.93
2023-02-22T04:33:11.755Z,6.28
2023-02-22T04:35:38.614Z,5.28
2023-02-22T04:38:05.815Z,5.75
2023-02-22T04:40:32.382Z,5.70
2023-02-22T04:42:58.797Z,6.57
2023-02-22T04:45:25.228Z,14.50
2023-02-22T04:47:51.762Z,8.10
2023-02-22T04:50:18.202Z,7.90
2023-02-22T04:52:45.708Z,8.40
2023-02-22T04:55:12.262Z,6.68
2023-02-22T04:57:38.822Z,9.10
2023-02-22T05:00:05.222Z,9.48
2023-02-22T05:02:32.068Z,8.32
2023-02-22T05:04:58.602Z,13.60
2023-02-22T05:07:25.047Z,7.70
2023-02-22T05:09:51.569Z,7.00
2023-02-22T05:12:18.027Z,6.75
2023-02-22T05:14:44.691Z,7.75
2023-02-22T05:17:11.139Z,5.82
2023-02-22T05:19:37.498Z,7.85
2023-02-22T05:22:03.905Z,8.95
2023-02-22T05:24:30.353Z,7.47
2023-02-22T05:26:56.774Z,7.35
2023-02-22T05:29:23.218Z,8.38
2023-02-22T05:31:49.864Z,6.07
2023-02-22T05:34:16.322Z,5.53
2023-02-22T05:36:42.774Z,7.25
2023-02-22T05:39:09.329Z,5.47
2023-02-22T05:41:35.732Z,10.40
2023-02-22T05:44:02.243Z,9.13
2023-02-22T05:46:28.888Z,5.78
2023-02-22T05:48:55.298Z,7.22
2023-02-22T05:51:21.815Z,6.13
2023-02-22T05:53:48.349Z,6.30
2023-02-22T05:56:14.808Z,7.75
2023-02-22T05:58:41.293Z,5.32
2023-02-22T06:01:07.777Z,4.82
2023-02-22T06:03:34.219Z,5.07
2023-02-22T06:06:00.578Z,6.82
2023-02-22T06:08:27.066Z,7.35
2023-02-22T06:10:53.536Z,6.25
2023-02-22T06:13:19.954Z,6.30
2023-02-22T06:15:46.485Z,5.93
2023-02-22T06:18:13.084Z,7.15
2023-02-22T06:20:39.498Z,6.22
2023-02-22T06:23:06.056Z,5.60
2023-02-22T06:25:32.564Z,6.72
2023-02-22T06:27:59.240Z,6.60
2023-02-22T06:30:25.955Z,29.15
2023-02-22T06:32:52.437Z,15.60
2023-02-22T06:35:18.871Z,20.48
2023-02-22T06:37:45.433Z,20.70
2023-02-22T06:40:11.819Z,23.55
2023-02-22T06:42:38.209Z,19.42
2023-02-22T06:45:04.750Z,13.88
2023-02-22T06:47:31.114Z,18.60
2023-02-22T06:49:57.501Z,9.85
2023-02-22T06:52:23.928Z,15.93
2023-02-22T06:54:50.314Z,10.88
2023-02-22T06:57:16.687Z,19.48
2023-02-22T06:59:43.152Z,13.23
2023-02-22T07:02:09.571Z,11.90
2023-02-22T07:04:37.181Z,13.07
2023-02-22T07:07:03.725Z,14.00
2023-02-22T07:09:30.123Z,11.68
2023-02-22T07:11:56.445Z,10.27
2023-02-22T07:14:22.974Z,11.32
2023-02-22T07:16:49.334Z,16.13
2023-02-22T07:19:15.736Z,10.90
2023-02-22T07:21:42.143Z,10.20
2023-02-22T07:24:08.486Z,14.55
2023-02-22T07:26:34.918Z,13.85
2023-02-22T07:29:01.319Z,9.77
2023-02-22T07:31:29.609Z,10.05
2023-02-22T07:33:56.133Z,10.65
2023-02-22T07:36:22.603Z,12.60
2023-02-22T07:38:48.976Z,8.02
2023-02-22T07:41:15.678Z,7.43
2023-02-22T07:43:42.238Z,8.88
2023-02-22T07:46:08.608Z,8.68
2023-02-22T07:48:34.957Z,10.65
2023-02-22T07:51:01.360Z,8.10
2023-02-22T07:53:28.931Z,8.50
2023-02-22T07:55:55.386Z,7.93
2023-02-22T07:58:21.795Z,7.90
2023-02-22T08:00:48.141Z,8.90
2023-02-22T08:03:14.559Z,6.97
2023-02-22T08:05:40.997Z,11.00
2023-02-22T08:08:07.339Z,8.65
2023-02-22T08:10:33.724Z,7.38
2023-02-22T08:13:00.158Z,8.00
2023-02-22T08:15:26.562Z,9.40
2023-02-22T08:17:52.914Z,8.65
2023-02-22T08:20:19.401Z,8.10
2023-02-22T08:22:45.778Z,8.57
2023-02-22T08:25:12.125Z,9.27
2023-02-22T08:27:38.570Z,8.98
2023-02-22T08:30:05.180Z,7.78
2023-02-22T08:32:31.643Z,6.80
2023-02-22T08:34:58.271Z,8.73
2023-02-22T08:37:24.632Z,9.20
2023-02-22T08:39:50.987Z,5.95
2023-02-22T08:42:17.381Z,6.65
2023-02-22T08:44:43.779Z,6.03
2023-02-22T08:47:10.124Z,7.20
2023-02-22T08:49:36.533Z,8.65
2023-02-22T08:52:02.913Z,8.00
2023-02-22T08:54:29.321Z,8.93
2023-02-22T08:56:55.729Z,6.97
2023-02-22T08:59:22.104Z,6.80
2023-02-22T09:01:48.583Z,6.40
2023-02-22T09:04:15.044Z,7.60
2023-02-22T09:06:41.452Z,7.10
2023-02-22T09:09:09.401Z,6.50
2023-02-22T09:11:35.847Z,6.05
2023-02-22T09:14:02.227Z,6.40
2023-02-22T09:16:28.708Z,6.07
2023-02-22T09:18:55.089Z,6.22
2023-02-22T09:21:21.474Z,6.72
2023-02-22T09:23:47.900Z,7.05
2023-02-22T09:26:14.312Z,6.60
2023-02-22T09:28:40.653Z,7.45
2023-02-22T09:31:07.003Z,6.70
2023-02-22T09:33:33.407Z,8.60
2023-02-22T09:35:59.794Z,6.57
2023-02-22T09:38:26.162Z,5.70
2023-02-22T09:40:52.562Z,6.68
2023-02-22T09:43:18.958Z,7.85
2023-02-22T09:45:45.374Z,7.78
2023-02-22T09:48:21.734Z,5.95
2023-02-22T09:50:48.606Z,6.13
2023-02-22T09:53:14.975Z,5.93
2023-02-22T09:55:41.341Z,6.53
2023-02-22T09:58:07.697Z,6.80
2023-02-22T10:00:34.120Z,5.07
2023-02-22T10:03:00.536Z,5.38
2023-02-22T10:05:26.972Z,6.07
2023-02-22T10:07:53.410Z,8.70
2023-02-22T10:10:19.852Z,9.77
2023-02-22T10:12:46.311Z,8.60
2023-02-22T10:15:12.705Z,10.02
2023-02-22T10:17:39.026Z,8.00
2023-02-22T10:20:05.361Z,7.00
2023-02-22T10:22:31.831Z,8.73
2023-02-22T10:24:58.198Z,6.07
2023-02-22T10:27:24.563Z,15.18
2023-02-22T10:29:50.997Z,8.85
2023-02-22T10:32:17.517Z,10.23
2023-02-22T10:34:43.973Z,9.77
2023-02-22T10:37:10.452Z,8.68
2023-02-22T10:39:36.936Z,8.60
2023-02-22T10:42:03.324Z,9.80
2023-02-22T10:44:29.743Z,8.35
2023-02-22T10:46:56.438Z,8.60
2023-02-22T10:49:22.880Z,15.65
2023-02-22T10:51:49.311Z,10.75
2023-02-22T10:54:15.696Z,8.38
2023-02-22T10:56:42.094Z,8.25
2023-02-22T10:59:08.522Z,9.15
2023-02-22T11:01:34.903Z,9.07
2023-02-22T11:04:01.281Z,9.43
2023-02-22T11:06:27.822Z,8.38
2023-02-22T11:08:54.190Z,8.48
2023-02-22T11:11:20.604Z,7.93
2023-02-22T11:13:47.093Z,9.20
2023-02-22T11:16:13.509Z,7.15
2023-02-22T11:18:39.892Z,6.82
2023-02-22T11:21:06.339Z,7.97
2023-02-22T11:23:32.726Z,8.88
2023-02-22T11:25:59.127Z,8.80
2023-02-22T11:28:25.590Z,8.93
2023-02-22T11:30:52.135Z,8.93
2023-02-22T11:33:18.604Z,6.88
2023-02-22T11:35:45.045Z,7.68
2023-02-22T11:38:11.393Z,6.97
2023-02-22T11:40:37.790Z,7.68
2023-02-22T11:43:04.212Z,8.27
2023-02-22T11:45:30.616Z,7.47
2023-02-22T11:47:56.995Z,7.97
2023-02-22T11:50:23.422Z,7.55
2023-02-22T11:52:49.804Z,7.05
2023-02-22T11:55:16.196Z,6.68
2023-02-22T11:57:42.637Z,5.80
2023-02-22T12:00:09.036Z,5.88
2023-02-22T12:02:35.353Z,7.10
2023-02-22T12:05:01.890Z,10.30
2023-02-22T12:07:28.270Z,9.32
2023-02-22T12:09:54.631Z,9.10
2023-02-22T12:12:21.115Z,7.43
2023-02-22T12:14:47.502Z,9.10
2023-02-22T12:17:13.905Z,6.20
2023-02-22T12:19:40.363Z,10.40
2023-02-22T12:22:06.812Z,9.32
2023-02-22T12:24:33.167Z,6.40
2023-02-22T12:26:59.611Z,10.38
2023-02-22T12:29:26.006Z,7.90
2023-02-22T12:31:52.392Z,8.32
2023-02-22T12:34:18.835Z,6.03
2023-02-22T12:36:45.230Z,7.32
2023-02-22T12:39:11.621Z,7.43
2023-02-22T12:41:38.031Z,7.13
2023-02-22T12:44:04.422Z,7.20
2023-02-22T12:46:30.863Z,7.72
2023-02-22T12:48:57.292Z,9.65
2023-02-22T12:51:23.697Z,5.88
2023-02-22T12:53:50.202Z,7.20
2023-02-22T12:56:16.634Z,6.57
2023-02-22T12:58:43.051Z,7.32
2023-02-22T13:01:09.428Z,6.97
2023-02-22T13:03:35.846Z,6.72
2023-02-22T13:06:02.244Z,5.88
2023-02-22T13:08:28.610Z,7.00
2023-02-22T13:10:55.006Z,8.80
2023-02-22T13:13:21.341Z,6.45
2023-02-22T13:15:47.733Z,5.55
2023-02-22T13:18:14.239Z,8.10
2023-02-22T13:20:40.699Z,8.48
2023-02-22T13:23:07.112Z,7.28
2023-02-22T13:25:33.566Z,12.07
2023-02-22T13:27:59.951Z,11.45
2023-02-22T13:30:26.347Z,7.85
2023-02-22T13:32:52.804Z,9.23
2023-02-22T13:35:19.171Z,13.45
2023-02-22T13:37:45.530Z,14.52
2023-02-22T13:40:11.975Z,10.95
2023-02-22T13:42:38.325Z,8.73
2023-02-22T13:45:04.666Z,7.93
2023-02-22T13:47:31.074Z,8.90
2023-02-22T13:49:57.446Z,9.50
2023-02-22T13:52:23.876Z,8.82
2023-02-22T13:54:50.290Z,7.95
2023-02-22T13:57:16.634Z,9.98
2023-02-22T13:59:43.074Z,8.13
2023-02-22T14:02:09.494Z,8.65
2023-02-22T14:04:35.840Z,6.63
2023-02-22T14:07:02.293Z,8.30
2023-02-22T14:09:28.670Z,7.30
2023-02-22T14:11:55.045Z,6.20
2023-02-22T14:14:21.382Z,8.55
2023-02-22T14:16:47.927Z,7.75
2023-02-22T14:19:14.347Z,6.80
2023-02-22T14:21:40.724Z,7.30
2023-02-22T14:24:07.192Z,6.50
2023-02-22T14:26:33.710Z,6.93
2023-02-22T14:29:00.137Z,7.00
2023-02-22T14:31:36.051Z,6.95
2023-02-22T14:34:03.700Z,8.18
2023-02-22T14:36:30.243Z,9.13
2023-02-22T14:38:56.634Z,5.68
2023-02-22T14:41:22.976Z,5.72
2023-02-22T14:43:49.429Z,6.45
2023-02-22T14:46:16.122Z,6.63
2023-02-22T14:48:42.667Z,7.40
2023-02-22T14:51:20.804Z,6.68
2023-02-22T14:53:48.181Z,6.88
2023-02-22T14:56:14.676Z,6.85
2023-02-22T14:58:41.161Z,7.80
2023-02-22T15:01:07.540Z,6.10
2023-02-22T15:03:33.911Z,6.53
2023-02-22T15:06:00.289Z,5.80
2023-02-22T15:08:26.656Z,6.30
2023-02-22T15:10:53.034Z,9.13
2023-02-22T15:13:19.438Z,7.72
2023-02-22T15:15:48.302Z,8.68
2023-02-22T15:18:15.755Z,6.93
2023-02-22T15:20:42.215Z,6.65
2023-02-22T15:23:08.609Z,6.75
2023-02-22T15:25:34.982Z,6.53
2023-02-22T15:28:01.336Z,7.32
2023-02-22T15:30:27.733Z,7.25
2023-02-22T15:33:04.156Z,6.28
2023-02-22T15:35:31.311Z,7.43
2023-02-22T15:37:57.757Z,6.65
2023-02-22T15:40:24.091Z,6.95
2023-02-22T15:42:50.435Z,6.35
2023-02-22T15:45:16.795Z,6.72
2023-02-22T15:47:43.164Z,6.22
2023-02-22T15:50:09.542Z,7.88
2023-02-22T15:52:35.894Z,6.85
2023-02-22T15:55:02.227Z,7.88
2023-02-22T15:57:28.566Z,7.47
2023-02-22T15:59:55.018Z,7.00
2023-02-22T16:02:21.406Z,6.20
2023-02-22T16:04:58.175Z,6.07
2023-02-22T16:07:25.635Z,5.95
2023-02-22T16:09:51.998Z,6.28
2023-02-22T16:12:18.320Z,4.88
2023-02-22T16:14:44.812Z,6.97
2023-02-22T16:17:11.247Z,6.47
2023-02-22T16:19:37.679Z,7.03
2023-02-22T16:22:04.151Z,6.28
2023-02-22T16:24:30.596Z,5.93
2023-02-22T16:26:57.068Z,7.90
2023-02-22T16:29:23.549Z,5.90
2023-02-22T16:31:50.057Z,5.85
2023-02-22T16:34:16.480Z,7.18
2023-02-22T16:36:42.885Z,7.05
2023-02-22T16:39:09.209Z,7.55
2023-02-22T16:41:35.519Z,7.25
2023-02-22T16:44:01.934Z,7.97
2023-02-22T16:46:28.404Z,6.72
2023-02-22T16:48:54.772Z,8.10
2023-02-22T16:51:21.332Z,5.55
2023-02-22T16:53:47.687Z,6.90
2023-02-22T16:56:14.111Z,6.50
2023-02-22T16:58:40.530Z,6.25
2023-02-22T17:01:06.896Z,7.35
2023-02-22T17:03:33.233Z,7.45
2023-02-22T17:05:59.634Z,6.10
2023-02-22T17:08:26.014Z,6.20
2023-02-22T17:10:52.320Z,6.32
2023-02-22T17:13:24.177Z,6.20
2023-02-22T17:15:52.231Z,6.10
2023-02-22T17:18:18.800Z,6.35
2023-02-22T17:20:45.199Z,5.68
2023-02-22T17:23:11.582Z,6.32
2023-02-22T17:25:37.934Z,7.60
2023-02-22T17:28:04.298Z,6.13
2023-02-22T17:30:30.653Z,7.47
2023-02-22T17:32:57.025Z,6.00
2023-02-22T17:35:23.388Z,8.38
2023-02-22T17:37:49.825Z,7.10
2023-02-22T17:40:16.256Z,6.45
2023-02-22T17:42:42.683Z,7.20
2023-02-22T17:45:09.015Z,7.10
2023-02-22T17:47:35.332Z,6.65
2023-02-22T17:50:01.719Z,6.40
2023-02-22T17:52:28.063Z,6.13
2023-02-22T17:54:54.382Z,7.72
2023-02-22T17:57:20.922Z,5.90
2023-02-22T17:59:47.311Z,6.88
2023-02-22T18:02:13.685Z,6.97
2023-02-22T18:04:40.156Z,7.15
2023-02-22T18:07:06.506Z,6.78
2023-02-22T18:09:32.873Z,7.18
2023-02-22T18:11:59.300Z,7.60
2023-02-22T18:14:25.643Z,7.70
2023-02-22T18:16:51.987Z,7.38
2023-02-22T18:19:18.403Z,7.05
2023-02-22T18:21:44.796Z,7.38
2023-02-22T18:24:11.167Z,7.30
2023-02-22T18:26:37.625Z,7.30
2023-02-22T18:29:03.961Z,7.07
2023-02-22T18:31:30.436Z,7.53
2023-02-22T18:33:56.956Z,8.15
2023-02-22T18:36:23.777Z,7.95
2023-02-22T18:38:50.320Z,8.55
2023-02-22T18:41:16.712Z,8.80
2023-02-22T18:43:43.113Z,7.78
2023-02-22T18:46:09.467Z,9.95
2023-02-22T18:48:35.860Z,8.35
2023-02-22T18:51:02.257Z,8.27
2023-02-22T18:53:28.821Z,7.18
2023-02-22T18:55:55.264Z,9.27
2023-02-22T18:58:21.589Z,8.55
2023-02-22T19:00:47.939Z,8.90
2023-02-22T19:03:14.316Z,9.50
2023-02-22T19:05:40.636Z,9.13
2023-02-22T19:08:06.994Z,9.30
2023-02-22T19:10:33.365Z,10.52
2023-02-22T19:12:59.679Z,9.68
2023-02-22T19:15:26.029Z,9.90
2023-02-22T19:17:52.436Z,11.02
2023-02-22T19:20:18.764Z,10.23
2023-02-22T19:22:45.082Z,10.85
2023-02-22T19:25:11.474Z,10.18
2023-02-22T19:27:37.792Z,10.65
2023-02-22T19:30:04.109Z,9.55
2023-02-22T19:32:30.617Z,11.43
2023-02-22T19:34:57.005Z,10.38
2023-02-22T19:37:23.315Z,11.48
2023-02-22T19:39:49.824Z,11.32
2023-02-22T19:42:16.245Z,11.73
2023-02-22T19:44:42.566Z,12.07
2023-02-22T19:47:09.074Z,10.77
2023-02-22T19:49:35.496Z,11.25
2023-02-22T19:52:01.822Z,11.13
2023-02-22T19:54:28.215Z,11.50
2023-02-22T19:56:54.551Z,11.25
2023-02-22T19:59:21.054Z,11.15
2023-02-22T20:01:47.459Z,13.40
2023-02-22T20:04:13.902Z,12.27
2023-02-22T20:06:40.390Z,11.77
2023-02-22T20:09:06.827Z,13.23
2023-02-22T20:11:33.160Z,13.15
2023-02-22T20:13:59.482Z,11.75
2023-02-22T20:16:25.945Z,11.25
2023-02-22T20:18:52.312Z,12.00
2023-02-22T20:21:18.898Z,11.65
2023-02-22T20:23:45.510Z,12.48
2023-02-22T20:26:11.942Z,12.95
2023-02-22T20:28:38.288Z,12.15
2023-02-22T20:31:04.653Z,12.77
2023-02-22T20:33:31.239Z,12.27
2023-02-22T20:35:57.730Z,12.82
2023-02-22T20:38:24.158Z,12.15
2023-02-22T20:40:50.513Z,11.80
2023-02-22T20:43:16.824Z,14.23
2023-02-22T20:45:43.255Z,12.65
2023-02-22T20:48:09.623Z,12.15
2023-02-22T20:50:35.942Z,13.60
2023-02-22T20:53:02.313Z,14.05
2023-02-22T20:55:28.626Z,13.25
2023-02-22T20:57:54.956Z,12.98
2023-02-22T21:00:21.320Z,15.52
2023-02-22T21:02:47.644Z,14.25
2023-02-22T21:05:13.970Z,13.00
2023-02-22T21:07:40.438Z,12.55
2023-02-22T21:10:06.839Z,13.50
2023-02-22T21:12:33.164Z,14.52
2023-02-22T21:14:59.522Z,14.02
2023-02-22T21:17:25.837Z,14.43
2023-02-22T21:19:52.194Z,15.60
2023-02-22T21:22:18.619Z,15.30
2023-02-22T21:24:44.939Z,14.50
2023-02-22T21:27:11.314Z,15.45
2023-02-22T21:29:37.772Z,14.10
2023-02-22T21:32:04.388Z,15.38
2023-02-22T21:34:30.811Z,13.38
2023-02-22T21:36:57.189Z,13.73
2023-02-22T21:39:23.519Z,18.13
2023-02-22T21:41:49.835Z,15.05
2023-02-22T21:44:16.195Z,14.65
2023-02-22T21:46:42.515Z,15.50
2023-02-22T21:49:08.836Z,15.48
2023-02-22T21:51:35.196Z,15.13
2023-02-22T21:54:01.502Z,16.48
2023-02-22T21:56:27.828Z,16.63
2023-02-22T21:58:54.221Z,16.80
2023-02-22T22:01:20.848Z,16.55
2023-02-22T22:03:47.371Z,17.10
2023-02-22T22:06:13.767Z,19.05
2023-02-22T22:08:40.107Z,16.52
2023-02-22T22:11:06.452Z,17.63
2023-02-22T22:13:32.810Z,17.05
2023-02-22T22:15:59.162Z,17.20
2023-02-22T22:18:25.526Z,19.98
2023-02-22T22:20:51.921Z,18.70
2023-02-22T22:23:18.285Z,16.88
2023-02-22T22:25:44.769Z,18.15
2023-02-22T22:28:11.300Z,18.90
2023-02-22T22:30:37.731Z,18.10
2023-02-22T22:33:04.050Z,17.85
2023-02-22T22:35:30.431Z,18.73
2023-02-22T22:37:56.765Z,20.17
2023-02-22T22:40:23.075Z,18.17
2023-02-22T22:42:49.471Z,19.60
2023-02-22T22:45:15.792Z,18.95
2023-02-22T22:47:42.112Z,18.98
2023-02-22T22:50:08.489Z,18.88
2023-02-22T22:52:34.817Z,19.25
2023-02-22T22:55:01.151Z,17.67
2023-02-22T22:57:27.505Z,17.98
2023-02-22T22:59:53.825Z,18.05
2023-02-22T23:02:20.214Z,20.27
2023-02-22T23:04:46.580Z,20.05
2023-02-22T23:07:13.005Z,18.67
2023-02-22T23:09:39.422Z,19.02
2023-02-22T23:12:05.810Z,21.13
2023-02-22T23:14:32.184Z,17.83
2023-02-22T23:16:58.661Z,19.98
2023-02-22T23:19:25.098Z,19.80
2023-02-22T23:21:51.424Z,20.88
2023-02-22T23:24:17.760Z,20.08
2023-02-22T23:26:44.125Z,20.73
2023-02-22T23:29:10.438Z,19.20
2023-02-22T23:31:36.838Z,19.00
2023-02-22T23:34:03.271Z,21.67
2023-02-22T23:36:29.705Z,20.48
2023-02-22T23:38:56.072Z,19.92
2023-02-22T23:41:22.494Z,19.13
2023-02-22T23:43:48.828Z,19.52
2023-02-22T23:46:15.155Z,19.08
2023-02-22T23:48:41.543Z,20.33
2023-02-22T23:51:07.877Z,20.38
2023-02-22T23:53:34.259Z,19.92
2023-02-22T23:56:00.637Z,21.00
2023-02-22T23:58:27.019Z,20.25
